Time;durP1;ratioP1;P1;durP2;ratioP2;P2;SDS_P1;SDS_P2;PMS_P1;PMS_P2;Temp;Humidity;BMP_temperature;BMP_pressure;BME280_temperature;BME280_humidity;BME280_pressure;Samples;Min_cycle;Max_cycle;Signal;HPM_P1;HPM_P2
2022/11/21 00:03:36;;;;;;;26.23;22.85;;;;;;;;;;9973592;28;20100;-62
2022/11/21 00:08:30;;;;;;;29.33;24.38;;;;;;;;;;9986813;28;20101;-63
2022/11/21 00:13:24;;;;;;;30.00;22.98;;;;;;;;;;9987754;28;20125;-62
2022/11/21 00:18:18;;;;;;;27.75;22.38;;;;;;;;;;9987082;28;20064;-63
2022/11/21 00:23:12;;;;;;;22.75;20.35;;;;;;;;;;9970573;28;20149;-63
2022/11/21 00:28:05;;;;;;;28.85;25.77;;;;;;;;;;9988137;28;20078;-63
2022/11/21 00:32:58;;;;;;;29.98;24.42;;;;;;;;;;9993780;28;20066;-62
2022/11/21 00:37:52;;;;;;;29.58;21.95;;;;;;;;;;9996540;28;20050;-62
2022/11/21 00:42:45;;;;;;;21.92;19.20;;;;;;;;;;9995819;28;20482;-63
2022/11/21 00:47:39;;;;;;;19.70;16.60;;;;;;;;;;9995206;28;20057;-62
2022/11/21 00:52:33;;;;;;;26.02;15.93;;;;;;;;;;9995426;28;20138;-62
2022/11/21 00:57:28;;;;;;;19.63;15.85;;;;;;;;;;9994747;28;20055;-62
2022/11/21 01:02:22;;;;;;;20.50;18.20;;;;;;;;;;9995772;28;20077;-62
2022/11/21 01:07:16;;;;;;;19.48;16.08;;;;;;;;;;9995181;28;20410;-62
2022/11/21 01:12:09;;;;;;;18.52;14.32;;;;;;;;;;9994144;28;20089;-63
2022/11/21 01:17:04;;;;;;;16.33;13.88;;;;;;;;;;9993979;28;20050;-62
2022/11/21 01:21:58;;;;;;;17.25;14.93;;;;;;;;;;9994128;28;20050;-62
2022/11/21 01:26:53;;;;;;;19.42;16.00;;;;;;;;;;9993701;28;20137;-62
2022/11/21 01:31:46;;;;;;;18.50;14.57;;;;;;;;;;9993560;28;20142;-62
2022/11/21 01:36:40;;;;;;;22.48;15.65;;;;;;;;;;9994104;28;20493;-62
2022/11/21 01:41:38;;;;;;;22.60;17.17;;;;;;;;;;9993391;28;20505;-62
2022/11/21 01:46:32;;;;;;;20.08;16.70;;;;;;;;;;9992730;28;20544;-62
2022/11/21 01:51:30;;;;;;;18.83;15.52;;;;;;;;;;9993175;28;20081;-62
2022/11/21 01:56:23;;;;;;;17.83;15.02;;;;;;;;;;9993946;28;20042;-62
2022/11/21 02:01:17;;;;;;;17.25;13.35;;;;;;;;;;9992674;28;20089;-62
2022/11/21 02:06:12;;;;;;;14.20;12.75;;;;;;;;;;9992623;28;20585;-62
2022/11/21 02:11:27;;;;;;;17.75;13.93;;;;;;;;;;9992735;28;20054;-62
2022/11/21 02:16:21;;;;;;;13.88;12.02;;;;;;;;;;9981035;28;20061;-62
2022/11/21 02:21:33;;;;;;;14.73;13.20;;;;;;;;;;9991716;28;20148;-62
2022/11/21 02:26:28;;;;;;;14.13;11.77;;;;;;;;;;9992363;28;20393;-62
2022/11/21 02:31:21;;;;;;;14.20;12.68;;;;;;;;;;9992048;28;20069;-62
2022/11/21 02:36:47;;;;;;;13.30;11.23;;;;;;;;;;9991565;28;20485;-62
2022/11/21 02:42:32;;;;;;;12.93;11.63;;;;;;;;;;9949465;28;20081;-62
2022/11/21 02:47:26;;;;;;;12.43;11.13;;;;;;;;;;9988986;28;20050;-62
2022/11/21 02:52:20;;;;;;;12.35;11.10;;;;;;;;;;9973553;28;20077;-62
2022/11/21 02:57:14;;;;;;;16.00;10.45;;;;;;;;;;9990757;28;20112;-63
2022/11/21 03:02:08;;;;;;;13.10;9.77;;;;;;;;;;9990959;28;20133;-63
2022/11/21 03:07:02;;;;;;;13.23;10.20;;;;;;;;;;9990882;28;20042;-62
2022/11/21 03:11:56;;;;;;;10.45;9.35;;;;;;;;;;9990405;28;20054;-62
2022/11/21 03:16:49;;;;;;;9.95;8.60;;;;;;;;;;9989820;28;20049;-63
2022/11/21 03:21:43;;;;;;;8.88;7.95;;;;;;;;;;9989288;28;20050;-62
2022/11/21 03:26:38;;;;;;;12.55;8.90;;;;;;;;;;9989781;28;20470;-63
2022/11/21 03:31:31;;;;;;;12.80;9.07;;;;;;;;;;9988998;28;20108;-62
2022/11/21 03:36:25;;;;;;;11.35;10.02;;;;;;;;;;9989674;28;20061;-62
2022/11/21 03:41:31;;;;;;;9.82;8.82;;;;;;;;;;9989579;28;20054;-63
2022/11/21 03:46:24;;;;;;;9.57;8.57;;;;;;;;;;9978137;28;20097;-62
2022/11/21 03:51:18;;;;;;;10.48;9.45;;;;;;;;;;9988899;28;20145;-63
2022/11/21 03:56:11;;;;;;;12.50;10.02;;;;;;;;;;9988404;28;20047;-62
2022/11/21 04:01:04;;;;;;;11.68;9.35;;;;;;;;;;9975834;28;20141;-62
2022/11/21 04:05:58;;;;;;;12.55;9.98;;;;;;;;;;9988109;28;20532;-62
2022/11/21 04:10:52;;;;;;;14.07;10.95;;;;;;;;;;9988102;28;20054;-62
2022/11/21 04:15:46;;;;;;;10.70;9.60;;;;;;;;;;9988220;28;20069;-62
2022/11/21 04:20:41;;;;;;;11.10;10.00;;;;;;;;;;9988354;28;20074;-61
2022/11/21 04:25:34;;;;;;;10.80;9.70;;;;;;;;;;9987664;28;20057;-62
2022/11/21 04:30:29;;;;;;;12.77;10.15;;;;;;;;;;9988347;28;20066;-63
2022/11/21 04:35:23;;;;;;;13.55;11.02;;;;;;;;;;9987972;28;20050;-62
2022/11/21 04:40:17;;;;;;;11.18;9.98;;;;;;;;;;9988411;28;20549;-62
2022/11/21 04:45:11;;;;;;;10.27;9.27;;;;;;;;;;9984661;28;20050;-62
2022/11/21 04:50:07;;;;;;;12.07;10.80;;;;;;;;;;9987893;28;20054;-62
2022/11/21 04:55:01;;;;;;;13.45;10.43;;;;;;;;;;9987452;28;20472;-62
2022/11/21 04:59:55;;;;;;;11.07;9.98;;;;;;;;;;9987834;28;20055;-62
2022/11/21 05:04:49;;;;;;;11.63;10.30;;;;;;;;;;9987150;28;20050;-62
2022/11/21 05:09:43;;;;;;;12.95;9.25;;;;;;;;;;9987225;28;20490;-62
2022/11/21 05:14:37;;;;;;;13.55;10.65;;;;;;;;;;9986786;28;20054;-63
2022/11/21 05:19:30;;;;;;;11.07;9.85;;;;;;;;;;9990814;28;20051;-63
2022/11/21 05:24:25;;;;;;;13.73;10.48;;;;;;;;;;9994328;28;20456;-63
2022/11/21 05:29:20;;;;;;;12.35;10.73;;;;;;;;;;9994109;28;20464;-63
2022/11/21 05:34:20;;;;;;;17.02;12.38;;;;;;;;;;9994522;28;20081;-62
2022/11/21 05:39:14;;;;;;;16.55;11.98;;;;;;;;;;9993654;28;20050;-62
2022/11/21 05:44:08;;;;;;;18.65;16.67;;;;;;;;;;9993213;28;20076;-62
2022/11/21 05:49:02;;;;;;;17.45;13.95;;;;;;;;;;9993432;28;20124;-62
2022/11/21 05:53:56;;;;;;;16.27;13.75;;;;;;;;;;9991536;28;20453;-62
2022/11/21 05:58:49;;;;;;;16.17;13.65;;;;;;;;;;9989582;28;20124;-62
2022/11/21 06:03:43;;;;;;;19.73;15.32;;;;;;;;;;9970839;28;20065;-62
2022/11/21 06:08:42;;;;;;;18.10;16.05;;;;;;;;;;9989206;28;20060;-61
2022/11/21 06:13:37;;;;;;;22.23;16.27;;;;;;;;;;9982305;28;20058;-62
2022/11/21 06:18:33;;;;;;;17.92;14.52;;;;;;;;;;9992158;28;20053;-62
2022/11/21 06:23:26;;;;;;;20.33;15.00;;;;;;;;;;9987666;28;20056;-61
2022/11/21 06:28:20;;;;;;;24.90;16.55;;;;;;;;;;9990297;28;20058;-62
2022/11/21 06:33:13;;;;;;;18.50;15.73;;;;;;;;;;9990248;28;20122;-62
2022/11/21 06:38:07;;;;;;;19.45;15.20;;;;;;;;;;9990636;28;20567;-63
2022/11/21 06:43:01;;;;;;;16.58;13.90;;;;;;;;;;9972198;28;20097;-62
2022/11/21 06:47:55;;;;;;;15.90;13.18;;;;;;;;;;9979644;28;20034;-62
2022/11/21 06:52:49;;;;;;;16.48;13.43;;;;;;;;;;9988670;28;20521;-61
2022/11/21 06:57:42;;;;;;;18.33;13.82;;;;;;;;;;9990651;28;20058;-61
2022/11/21 07:02:36;;;;;;;16.42;14.45;;;;;;;;;;9989246;28;20085;-61
2022/11/21 07:07:30;;;;;;;18.75;13.02;;;;;;;;;;9989879;28;20078;-62
2022/11/21 07:17:37;;;;;;;13.63;11.95;;;;;;;;;;9989476;28;20095;-61
2022/11/21 07:22:31;;;;;;;13.40;10.77;;;;;;;;;;9989975;28;20054;-61
2022/11/21 07:27:25;;;;;;;11.45;9.77;;;;;;;;;;9988914;28;20085;-62
2022/11/21 07:32:19;;;;;;;15.20;10.65;;;;;;;;;;9988760;28;20059;-61
2022/11/21 07:37:12;;;;;;;14.13;9.93;;;;;;;;;;9988317;28;20062;-61
2022/11/21 07:42:05;;;;;;;12.15;10.90;;;;;;;;;;9986369;28;20053;-62
2022/11/21 07:47:01;;;;;;;12.57;9.48;;;;;;;;;;9970212;28;20082;-62
2022/11/21 07:51:55;;;;;;;14.93;11.52;;;;;;;;;;9988341;28;20137;-61
2022/11/21 07:56:49;;;;;;;16.05;9.48;;;;;;;;;;9983370;28;20054;-64
2022/11/21 08:01:43;;;;;;;13.77;9.95;;;;;;;;;;9984253;28;20057;-61
2022/11/21 08:06:38;;;;;;;10.43;9.30;;;;;;;;;;9982030;28;20042;-61
2022/11/21 08:11:32;;;;;;;10.77;8.70;;;;;;;;;;9977444;28;20065;-61
2022/11/21 08:16:26;;;;;;;22.85;20.50;;;;;;;;;;9984270;28;20050;-61
2022/11/21 08:21:21;;;;;;;7.93;6.20;;;;;;;;;;9985499;28;20054;-61
2022/11/21 08:26:15;;;;;;;9.13;7.45;;;;;;;;;;9984340;28;20050;-61
2022/11/21 08:31:09;;;;;;;11.05;7.90;;;;;;;;;;9986978;28;20057;-62
2022/11/21 08:36:07;;;;;;;10.80;7.78;;;;;;;;;;9987670;28;20122;-63
2022/11/21 08:46:12;;;;;;;32.50;23.20;;;;;;;;;;9976038;28;20043;-63
2022/11/21 08:51:06;;;;;;;35.58;26.35;;;;;;;;;;9986802;28;20051;-63
2022/11/21 08:56:00;;;;;;;14.20;11.35;;;;;;;;;;9994572;28;20132;-63
2022/11/21 09:00:56;;;;;;;17.65;12.82;;;;;;;;;;9994830;28;20420;-61
2022/11/21 09:05:50;;;;;;;17.30;10.82;;;;;;;;;;9976739;28;20517;-61
2022/11/21 09:10:44;;;;;;;25.73;10.70;;;;;;;;;;9994406;28;20050;-61
2022/11/21 09:20:50;;;;;;;15.13;11.45;;;;;;;;;;9993920;28;20050;-61
2022/11/21 09:25:44;;;;;;;14.55;10.88;;;;;;;;;;9994166;28;20522;-61
2022/11/21 09:30:39;;;;;;;14.27;11.85;;;;;;;;;;9993541;28;20482;-63
2022/11/21 09:35:32;;;;;;;15.45;12.10;;;;;;;;;;9993389;28;20042;-63
2022/11/21 09:40:30;;;;;;;13.95;10.07;;;;;;;;;;9993622;28;20050;-61
2022/11/21 09:45:33;;;;;;;10.27;7.93;;;;;;;;;;9992678;28;20138;-61
2022/11/21 09:50:53;;;;;;;9.93;7.82;;;;;;;;;;9993297;28;20493;-60
2022/11/21 09:55:55;;;;;;;11.07;9.45;;;;;;;;;;9975173;28;20400;-61
2022/11/21 10:00:51;;;;;;;11.10;7.55;;;;;;;;;;9992732;28;20425;-61
2022/11/21 10:05:47;;;;;;;21.67;13.77;;;;;;;;;;9991535;28;20141;-61
2022/11/21 10:10:44;;;;;;;17.48;13.60;;;;;;;;;;9974751;28;20089;-61
2022/11/21 10:15:49;;;;;;;14.45;11.32;;;;;;;;;;9991131;28;20061;-61
2022/11/21 10:21:14;;;;;;;13.32;8.82;;;;;;;;;;9992382;28;20116;-61
2022/11/21 10:26:16;;;;;;;14.07;8.70;;;;;;;;;;9987362;28;20113;-63
2022/11/21 10:31:12;;;;;;;13.90;7.82;;;;;;;;;;9973396;28;20514;-61
2022/11/21 10:36:14;;;;;;;8.07;7.03;;;;;;;;;;9973813;28;20435;-62
2022/11/21 10:41:17;;;;;;;10.02;7.60;;;;;;;;;;9990337;28;20062;-61
2022/11/21 10:46:10;;;;;;;10.00;7.10;;;;;;;;;;9989333;28;20050;-63
2022/11/21 10:51:12;;;;;;;10.82;7.60;;;;;;;;;;9989922;28;20422;-61
2022/11/21 10:56:18;;;;;;;9.15;8.13;;;;;;;;;;9990185;28;20053;-62
2022/11/21 11:01:38;;;;;;;9.70;7.10;;;;;;;;;;9990267;28;20054;-63
2022/11/21 11:06:33;;;;;;;8.30;7.35;;;;;;;;;;9983457;28;20057;-62
2022/11/21 11:11:30;;;;;;;8.57;6.57;;;;;;;;;;9989650;28;20077;-62
2022/11/21 11:16:25;;;;;;;8.25;6.20;;;;;;;;;;9988166;28;20576;-63
2022/11/21 11:21:24;;;;;;;7.22;6.32;;;;;;;;;;9988897;28;20505;-62
2022/11/21 11:26:40;;;;;;;7.85;6.57;;;;;;;;;;9972251;28;20050;-62
2022/11/21 11:31:49;;;;;;;7.22;6.07;;;;;;;;;;9978923;28;20514;-62
2022/11/21 11:37:04;;;;;;;10.30;6.43;;;;;;;;;;9982622;28;20498;-61
2022/11/21 11:47:44;;;;;;;8.48;7.13;;;;;;;;;;9988208;28;20417;-62
2022/11/21 11:52:58;;;;;;;7.85;6.57;;;;;;;;;;9988777;28;20046;-62
2022/11/21 11:57:53;;;;;;;8.73;7.47;;;;;;;;;;9987978;28;20156;-63
2022/11/21 12:03:17;;;;;;;7.80;7.00;;;;;;;;;;9971183;28;20063;-63
2022/11/21 12:08:17;;;;;;;8.13;7.32;;;;;;;;;;9969988;28;20054;-61
2022/11/21 12:13:31;;;;;;;7.30;6.57;;;;;;;;;;9973782;28;20050;-61
2022/11/21 12:18:33;;;;;;;10.45;8.05;;;;;;;;;;9987747;28;20105;-61
2022/11/21 12:23:30;;;;;;;7.97;6.75;;;;;;;;;;9985408;28;20046;-62
2022/11/21 12:28:40;;;;;;;9.10;7.63;;;;;;;;;;9987002;28;20078;-61
2022/11/21 12:33:37;;;;;;;9.43;7.03;;;;;;;;;;9975858;28;20082;-61
2022/11/21 12:39:00;;;;;;;10.88;7.38;;;;;;;;;;9970090;28;20046;-61
2022/11/21 12:44:16;;;;;;;8.18;7.38;;;;;;;;;;9984156;28;20046;-61
2022/11/21 12:55:11;;;;;;;9.80;8.15;;;;;;;;;;9974975;28;20484;-62
2022/11/21 13:00:13;;;;;;;7.50;6.65;;;;;;;;;;9960048;28;20054;-62
2022/11/21 13:05:10;;;;;;;9.15;8.15;;;;;;;;;;9983785;28;20081;-62
2022/11/21 13:10:05;;;;;;;9.70;8.57;;;;;;;;;;9984730;28;20104;-64
2022/11/21 13:15:39;;;;;;;9.23;8.20;;;;;;;;;;9968514;28;20069;-62
2022/11/21 13:20:48;;;;;;;10.02;8.18;;;;;;;;;;9985233;28;20057;-65
2022/11/21 13:25:45;;;;;;;13.30;7.97;;;;;;;;;;9986812;28;20050;-61
2022/11/21 13:30:52;;;;;;;12.25;8.75;;;;;;;;;;9970542;28;20089;-61
2022/11/21 13:35:49;;;;;;;12.35;8.13;;;;;;;;;;9986076;28;20101;-62
2022/11/21 13:42:56;;;;;;;9.07;7.85;;;;;;;;;;9990702;28;20066;-62
2022/11/21 13:45:58;;;;;;;12.70;9.57;;;;;;;;;;9991244;28;20120;-64
2022/11/21 13:51:18;;;;;;;16.63;8.93;;;;;;;;;;9988454;28;20058;-61
2022/11/21 13:56:24;;;;;;;;;;;;;;;;;;9992278;28;20050;-61
2022/11/21 14:01:47;;;;;;;12.48;9.48;;;;;;;;;;9988846;28;19922;-61
2022/11/21 14:06:43;;;;;;;10.65;9.13;;;;;;;;;;9990442;28;20053;-62
2022/11/21 14:11:47;;;;;;;11.85;9.32;;;;;;;;;;9991534;28;20497;-64
2022/11/21 14:16:45;;;;;;;14.10;10.18;;;;;;;;;;9992148;28;20049;-64
2022/11/21 14:21:45;;;;;;;14.73;11.35;;;;;;;;;;9991668;28;20054;-61
2022/11/21 14:26:41;;;;;;;14.88;12.60;;;;;;;;;;9991623;28;20553;-61
2022/11/21 14:31:47;;;;;;;14.13;12.18;;;;;;;;;;9993611;28;20066;-61
2022/11/21 14:36:42;;;;;;;17.02;12.32;;;;;;;;;;9999190;28;20061;-61
2022/11/21 14:41:38;;;;;;;22.20;13.98;;;;;;;;;;9991124;28;20046;-62
2022/11/21 14:46:36;;;;;;;15.20;12.98;;;;;;;;;;9990643;28;20086;-62
2022/11/21 14:51:31;;;;;;;17.88;14.77;;;;;;;;;;9990248;28;20053;-62
2022/11/21 14:56:29;;;;;;;27.10;19.42;;;;;;;;;;9991239;28;20047;-62
2022/11/21 15:01:27;;;;;;;34.53;23.37;;;;;;;;;;9973097;28;20058;-62
2022/11/21 15:06:20;;;;;;;32.80;24.25;;;;;;;;;;9989730;28;20393;-62
2022/11/21 15:11:15;;;;;;;30.40;24.17;;;;;;;;;;9989843;28;20054;-62
2022/11/21 15:16:08;;;;;;;34.30;25.52;;;;;;;;;;9952400;28;20046;-62
2022/11/21 15:21:03;;;;;;;29.98;23.60;;;;;;;;;;9989109;28;20061;-62
2022/11/21 15:25:58;;;;;;;26.35;22.38;;;;;;;;;;9988616;28;20055;-62
2022/11/21 15:31:18;;;;;;;28.75;22.70;;;;;;;;;;9989913;28;20458;-62
2022/11/21 15:36:13;;;;;;;34.37;22.47;;;;;;;;;;9989390;28;20078;-61
2022/11/21 15:41:08;;;;;;;39.00;29.23;;;;;;;;;;9988515;28;20042;-62
2022/11/21 15:46:04;;;;;;;29.60;22.63;;;;;;;;;;9988379;28;20138;-61
2022/11/21 15:50:59;;;;;;;29.05;20.08;;;;;;;;;;9987834;28;20077;-61
2022/11/21 15:55:53;;;;;;;29.90;21.05;;;;;;;;;;9988376;28;20121;-61
2022/11/21 16:00:48;;;;;;;25.48;20.95;;;;;;;;;;9987329;28;20058;-61
2022/11/21 16:05:42;;;;;;;28.88;21.65;;;;;;;;;;9969126;28;20637;-62
2022/11/21 16:10:36;;;;;;;29.77;23.17;;;;;;;;;;9988101;28;20046;-61
2022/11/21 16:15:29;;;;;;;27.85;20.52;;;;;;;;;;9987435;28;20074;-61
2022/11/21 16:20:23;;;;;;;30.85;23.88;;;;;;;;;;9987055;28;20080;-62
2022/11/21 16:25:17;;;;;;;38.85;26.88;;;;;;;;;;9987440;28;20073;-61
2022/11/21 16:30:13;;;;;;;31.45;24.48;;;;;;;;;;9986949;28;20050;-62
2022/11/21 16:35:09;;;;;;;34.55;25.55;;;;;;;;;;9987167;28;20049;-61
2022/11/21 16:40:05;;;;;;;37.70;28.85;;;;;;;;;;9987286;28;20046;-61
2022/11/21 16:44:59;;;;;;;31.98;25.83;;;;;;;;;;9986892;28;20050;-62
2022/11/21 16:49:53;;;;;;;39.38;28.20;;;;;;;;;;9987064;28;20575;-61
2022/11/21 16:54:47;;;;;;;38.38;28.23;;;;;;;;;;9985303;28;20545;-61
2022/11/21 16:59:41;;;;;;;38.17;29.75;;;;;;;;;;9986154;28;20047;-61
2022/11/21 17:04:36;;;;;;;29.88;24.77;;;;;;;;;;9987147;28;20042;-61
2022/11/21 17:09:29;;;;;;;33.42;27.27;;;;;;;;;;9978117;28;20521;-61
2022/11/21 17:14:23;;;;;;;32.30;27.42;;;;;;;;;;9990241;28;20464;-61
2022/11/21 17:19:17;;;;;;;36.22;27.65;;;;;;;;;;9994247;28;20058;-61
2022/11/21 17:24:14;;;;;;;39.00;27.10;;;;;;;;;;9990832;28;20367;-61
2022/11/21 17:29:08;;;;;;;37.30;27.00;;;;;;;;;;9989114;28;20105;-61
2022/11/21 17:34:02;;;;;;;47.35;36.05;;;;;;;;;;9989757;28;20144;-61
2022/11/21 17:38:56;;;;;;;49.47;36.42;;;;;;;;;;9990263;28;20453;-62
2022/11/21 17:43:54;;;;;;;47.17;36.17;;;;;;;;;;9992361;28;20069;-62
2022/11/21 17:48:51;;;;;;;54.72;37.65;;;;;;;;;;9991665;28;20049;-60
2022/11/21 17:53:50;;;;;;;43.35;31.02;;;;;;;;;;9992485;28;20128;-60
2022/11/21 17:58:43;;;;;;;39.67;28.40;;;;;;;;;;9992002;28;20074;-60
2022/11/21 18:03:37;;;;;;;40.15;29.27;;;;;;;;;;9992246;28;20058;-60
2022/11/21 18:08:32;;;;;;;37.35;26.90;;;;;;;;;;9991948;28;20058;-60
2022/11/21 18:13:27;;;;;;;36.08;27.35;;;;;;;;;;9991853;28;20069;-60
2022/11/21 18:18:21;;;;;;;40.40;28.42;;;;;;;;;;9991025;28;20057;-63
2022/11/21 18:23:15;;;;;;;41.08;26.67;;;;;;;;;;9991944;28;20436;-63
2022/11/21 18:28:09;;;;;;;33.72;25.45;;;;;;;;;;9991299;28;20501;-61
2022/11/21 18:33:04;;;;;;;39.63;24.73;;;;;;;;;;9991762;28;20395;-61
2022/11/21 18:37:57;;;;;;;44.90;33.45;;;;;;;;;;9999266;28;20062;-62
2022/11/21 18:42:51;;;;;;;42.60;30.00;;;;;;;;;;9990387;28;20056;-62
2022/11/21 18:47:45;;;;;;;39.72;28.08;;;;;;;;;;9990618;28;20090;-61
2022/11/21 18:52:41;;;;;;;34.03;25.58;;;;;;;;;;9991384;28;20387;-61
2022/11/21 18:57:39;;;;;;;32.87;26.10;;;;;;;;;;9986416;28;20520;-62
2022/11/21 19:02:33;;;;;;;34.15;25.08;;;;;;;;;;9978063;28;20298;-62
2022/11/21 19:07:28;;;;;;;35.72;27.67;;;;;;;;;;9982866;28;20050;-62
2022/11/21 19:12:25;;;;;;;45.22;29.63;;;;;;;;;;9980665;28;20061;-62
2022/11/21 19:17:19;;;;;;;46.00;31.83;;;;;;;;;;9984808;28;20070;-63
2022/11/21 19:22:13;;;;;;;41.63;29.80;;;;;;;;;;9987418;28;20050;-63
2022/11/21 19:27:06;;;;;;;39.53;32.92;;;;;;;;;;9987463;28;20137;-63
2022/11/21 19:32:01;;;;;;;43.35;32.42;;;;;;;;;;9989447;28;20054;-63
2022/11/21 19:36:55;;;;;;;41.50;31.23;;;;;;;;;;9985249;28;20443;-63
2022/11/21 19:41:49;;;;;;;42.33;33.67;;;;;;;;;;9987507;28;20125;-62
2022/11/21 19:46:43;;;;;;;42.22;32.22;;;;;;;;;;9986098;28;20054;-62
2022/11/21 19:51:38;;;;;;;45.72;32.63;;;;;;;;;;9986183;28;20113;-62
2022/11/21 19:56:33;;;;;;;44.78;31.38;;;;;;;;;;9986047;28;20446;-62
2022/11/21 20:01:29;;;;;;;41.90;30.08;;;;;;;;;;9988242;28;20054;-62
2022/11/21 20:06:27;;;;;;;42.83;32.25;;;;;;;;;;9986913;28;20069;-59
2022/11/21 20:11:20;;;;;;;40.85;32.33;;;;;;;;;;9985549;28;20042;-60
2022/11/21 20:16:29;;;;;;;44.10;35.08;;;;;;;;;;9985156;28;20387;-59
2022/11/21 20:21:24;;;;;;;48.35;36.63;;;;;;;;;;9985266;28;20412;-59
2022/11/21 20:26:19;;;;;;;46.33;35.42;;;;;;;;;;9984632;28;20080;-61
2022/11/21 20:31:15;;;;;;;56.05;38.25;;;;;;;;;;9984426;28;20153;-59
2022/11/21 20:36:11;;;;;;;47.58;37.40;;;;;;;;;;9985173;28;20050;-60
2022/11/21 20:41:04;;;;;;;52.35;39.97;;;;;;;;;;9985694;28;20034;-60
2022/11/21 20:46:03;;;;;;;53.33;39.55;;;;;;;;;;9984903;28;20053;-59
2022/11/21 20:51:06;;;;;;;57.97;42.67;;;;;;;;;;9991914;28;20073;-59
2022/11/21 20:56:20;;;;;;;56.67;42.38;;;;;;;;;;9992991;28;20128;-60
2022/11/21 21:01:16;;;;;;;54.45;40.55;;;;;;;;;;9992742;28;20046;-60
2022/11/21 21:06:12;;;;;;;54.38;42.08;;;;;;;;;;9992460;28;20042;-60
2022/11/21 21:11:06;;;;;;;55.28;42.55;;;;;;;;;;9991309;28;20081;-60
2022/11/21 21:16:22;;;;;;;53.00;43.30;;;;;;;;;;9977126;28;20050;-59
2022/11/21 21:21:18;;;;;;;57.77;45.20;;;;;;;;;;9989181;28;20061;-60
2022/11/21 21:26:17;;;;;;;63.08;44.03;;;;;;;;;;9986802;28;20040;-60
2022/11/21 21:31:12;;;;;;;65.13;47.53;;;;;;;;;;9991813;28;20553;-60
2022/11/21 21:36:16;;;;;;;61.50;48.55;;;;;;;;;;9989722;28;20420;-60
2022/11/21 21:41:12;;;;;;;60.20;47.60;;;;;;;;;;9990525;28;20108;-61
2022/11/21 21:46:13;;;;;;;61.90;47.55;;;;;;;;;;9988632;28;20066;-60
2022/11/21 21:51:07;;;;;;;68.55;51.45;;;;;;;;;;9989480;28;20553;-61
2022/11/21 21:56:01;;;;;;;62.35;46.45;;;;;;;;;;9989218;28;20073;-61
2022/11/21 22:01:03;;;;;;;60.53;48.15;;;;;;;;;;9989479;28;20042;-60
2022/11/21 22:06:07;;;;;;;61.38;47.55;;;;;;;;;;9992062;28;20034;-61
2022/11/21 22:11:08;;;;;;;59.53;47.30;;;;;;;;;;9988399;28;20468;-60
2022/11/21 22:16:10;;;;;;;62.83;49.40;;;;;;;;;;9990851;28;20057;-60
2022/11/21 22:21:26;;;;;;;58.25;48.05;;;;;;;;;;9991361;28;20046;-60
2022/11/21 22:26:20;;;;;;;59.40;46.00;;;;;;;;;;9988564;28;20153;-60
2022/11/21 22:31:14;;;;;;;58.80;47.13;;;;;;;;;;9991340;28;20149;-61
2022/11/21 22:36:10;;;;;;;57.67;45.38;;;;;;;;;;9990514;28;20481;-61
2022/11/21 22:41:18;;;;;;;62.92;47.40;;;;;;;;;;9985810;28;20046;-61
2022/11/21 22:46:12;;;;;;;59.92;48.10;;;;;;;;;;9990114;28;20050;-61
2022/11/21 22:51:12;;;;;;;62.80;45.58;;;;;;;;;;9988843;28;20061;-60
2022/11/21 22:56:07;;;;;;;60.28;45.92;;;;;;;;;;9991056;28;20050;-61
2022/11/21 23:01:05;;;;;;;58.58;47.28;;;;;;;;;;9967732;28;20050;-60
2022/11/21 23:06:07;;;;;;;62.78;45.63;;;;;;;;;;9989567;28;20061;-61
2022/11/21 23:11:22;;;;;;;56.63;44.00;;;;;;;;;;9990100;28;20074;-61
2022/11/21 23:16:15;;;;;;;52.45;43.35;;;;;;;;;;9985109;28;20054;-61
2022/11/21 23:21:11;;;;;;;53.65;41.08;;;;;;;;;;9989191;28;20042;-61
2022/11/21 23:26:05;;;;;;;47.15;38.85;;;;;;;;;;9988697;28;20133;-60
2022/11/21 23:30:59;;;;;;;51.95;40.40;;;;;;;;;;9988580;28;20466;-61
2022/11/21 23:35:52;;;;;;;52.33;39.42;;;;;;;;;;9988464;28;20143;-60
2022/11/21 23:40:47;;;;;;;55.38;41.67;;;;;;;;;;9989019;28;20077;-61
2022/11/21 23:45:41;;;;;;;52.00;41.05;;;;;;;;;;9989540;28;20119;-60
2022/11/21 23:50:35;;;;;;;50.15;38.03;;;;;;;;;;9989118;28;20050;-61
2022/11/21 23:55:28;;;;;;;60.13;37.70;;;;;;;;;;9988853;28;20104;-61
